Time;durP1;ratioP1;P1;durP2;ratioP2;P2;SDS_P1;SDS_P2;PMS_P1;PMS_P2;Temp;Humidity;BMP_temperature;BMP_pressure;BME280_temperature;BME280_humidity;BME280_pressure;Samples;Min_cycle;Max_cycle;Signal;HPM_P1;HPM_P2
2022/05/01 00:00:53;;;;;;;8.45;7.65;;;;;;;;;;750334;77;26284;-71
2022/05/01 00:02:06;;;;;;;8.10;7.40;;;;;;;;;;784501;74;26326;-71
2022/05/01 00:03:35;;;;;;;8.10;7.30;;;;;;;;;;774301;75;26250;-71
2022/05/01 00:04:41;;;;;;;8.55;7.78;;;;;;;;;;768891;76;26400;-71
2022/05/01 00:05:49;;;;;;;7.85;7.15;;;;;;;;;;766908;76;26312;-72
2022/05/01 00:06:54;;;;;;;7.92;7.15;;;;;;;;;;766927;75;26260;-71
2022/05/01 00:08:01;;;;;;;8.05;7.25;;;;;;;;;;767038;76;26255;-71
2022/05/01 00:09:11;;;;;;;8.38;7.42;;;;;;;;;;765314;76;26758;-73
2022/05/01 00:10:23;;;;;;;7.42;6.60;;;;;;;;;;765292;76;26253;-70
2022/05/01 00:11:27;;;;;;;7.58;6.78;;;;;;;;;;772344;75;26315;-72
2022/05/01 00:20:02;;;;;;;8.88;8.08;;;;;;;;;;775794;75;26837;-71
2022/05/01 00:21:09;;;;;;;8.85;8.05;;;;;;;;;;776211;76;26249;-71
2022/05/01 00:22:14;;;;;;;9.15;8.35;;;;;;;;;;778995;76;26245;-71
2022/05/01 00:23:20;;;;;;;10.20;8.28;;;;;;;;;;780984;75;26718;-71
2022/05/01 00:24:31;;;;;;;9.63;8.73;;;;;;;;;;777406;75;26699;-70
2022/05/01 00:37:20;;;;;;;9.28;8.38;;;;;;;;;;747268;78;26280;-72
2022/05/01 00:38:30;;;;;;;10.28;9.28;;;;;;;;;;748587;78;26272;-72
2022/05/01 00:39:38;;;;;;;9.70;8.43;;;;;;;;;;750906;78;26280;-71
2022/05/01 00:45:41;;;;;;;9.38;8.45;;;;;;;;;;755480;77;26224;-71
2022/05/01 00:46:50;;;;;;;9.35;8.05;;;;;;;;;;755137;76;26390;-71
2022/05/01 00:48:02;;;;;;;9.80;8.90;;;;;;;;;;758445;78;26409;-69
2022/05/01 00:49:10;;;;;;;9.05;8.15;;;;;;;;;;741947;78;26731;-71
2022/05/01 00:50:23;;;;;;;9.40;8.50;;;;;;;;;;746313;77;26683;-70
2022/05/01 00:51:33;;;;;;;9.45;8.18;;;;;;;;;;743009;77;26288;-72
2022/05/01 00:52:41;;;;;;;9.30;8.40;;;;;;;;;;763747;77;26332;-71
2022/05/01 00:53:56;;;;;;;9.20;8.30;;;;;;;;;;760713;77;26328;-72
2022/05/01 00:55:02;;;;;;;10.88;8.70;;;;;;;;;;756457;77;26332;-71
2022/05/01 00:56:08;;;;;;;9.68;8.68;;;;;;;;;;747681;77;26266;-70
2022/05/01 00:57:17;;;;;;;9.68;8.78;;;;;;;;;;749224;78;26342;-70
2022/05/01 00:58:39;;;;;;;8.95;8.05;;;;;;;;;;748377;77;26351;-71
2022/05/01 01:06:23;;;;;;;8.13;7.37;;;;;;;;;;751080;78;26629;-73
2022/05/01 01:07:31;;;;;;;8.10;7.40;;;;;;;;;;749531;77;26326;-72
2022/05/01 01:08:52;;;;;;;8.75;7.95;;;;;;;;;;739303;78;26261;-72
2022/05/01 01:09:58;;;;;;;8.70;7.90;;;;;;;;;;748044;78;26707;-70
2022/05/01 01:11:17;;;;;;;8.60;7.80;;;;;;;;;;738372;78;26269;-70
2022/05/01 01:13:51;;;;;;;8.68;7.87;;;;;;;;;;745874;79;26291;-72
2022/05/01 01:14:59;;;;;;;9.03;8.13;;;;;;;;;;740725;79;26277;-70
2022/05/01 01:16:15;;;;;;;9.10;8.30;;;;;;;;;;753519;77;26321;-72
2022/05/01 01:17:21;;;;;;;9.33;8.43;;;;;;;;;;743552;78;26460;-71
2022/05/01 01:18:27;;;;;;;9.38;8.55;;;;;;;;;;744918;79;26270;-70
2022/05/01 01:23:41;;;;;;;10.32;9.43;;;;;;;;;;762842;76;26291;-70
2022/05/01 01:24:49;;;;;;;9.78;8.88;;;;;;;;;;753623;77;26748;-72
2022/05/01 01:25:57;;;;;;;9.85;8.85;;;;;;;;;;746712;78;26367;-70
2022/05/01 01:27:06;;;;;;;10.45;9.48;;;;;;;;;;750337;76;26381;-71
2022/05/01 01:28:14;;;;;;;10.40;9.40;;;;;;;;;;748618;78;26762;-72
2022/05/01 01:32:44;;;;;;;10.55;9.65;;;;;;;;;;772022;76;26723;-73
2022/05/01 01:34:00;;;;;;;11.08;10.08;;;;;;;;;;768781;76;26264;-71
2022/05/01 01:35:07;;;;;;;12.03;10.82;;;;;;;;;;762385;76;26254;-71
2022/05/01 01:36:12;;;;;;;12.70;11.43;;;;;;;;;;762173;76;26267;-71
2022/05/01 01:37:16;;;;;;;11.43;10.32;;;;;;;;;;750528;78;26343;-71
2022/05/01 01:38:22;;;;;;;11.65;10.55;;;;;;;;;;753812;78;26336;-72
2022/05/01 01:39:26;;;;;;;11.50;10.40;;;;;;;;;;755743;77;26743;-71
2022/05/01 01:40:35;;;;;;;11.60;10.50;;;;;;;;;;760172;76;26251;-73
2022/05/01 01:41:45;;;;;;;11.00;9.90;;;;;;;;;;760005;77;26244;-71
2022/05/01 01:53:07;;;;;;;12.28;11.05;;;;;;;;;;788374;74;26393;-72
2022/05/01 01:54:15;;;;;;;12.70;11.48;;;;;;;;;;773234;74;26308;-72
2022/05/01 01:55:32;;;;;;;12.23;11.12;;;;;;;;;;786068;75;27006;-71
2022/05/01 01:56:37;;;;;;;11.90;10.88;;;;;;;;;;787563;74;26390;-75
2022/05/01 01:57:48;;;;;;;12.30;11.00;;;;;;;;;;779416;73;26251;-72
2022/05/01 01:58:55;;;;;;;13.28;11.88;;;;;;;;;;778313;74;26322;-74
2022/05/01 02:00:10;;;;;;;11.68;10.50;;;;;;;;;;781732;74;26248;-72
2022/05/01 02:01:18;;;;;;;12.28;11.08;;;;;;;;;;780714;74;26249;-72
2022/05/01 02:02:26;;;;;;;12.75;11.55;;;;;;;;;;784936;75;26274;-71
2022/05/01 02:03:37;;;;;;;13.58;12.25;;;;;;;;;;786099;74;26249;-72
2022/05/01 02:04:42;;;;;;;13.28;11.88;;;;;;;;;;780657;74;26670;-71
2022/05/01 02:05:51;;;;;;;12.90;11.60;;;;;;;;;;775979;75;26258;-70
2022/05/01 02:06:58;;;;;;;13.22;12.00;;;;;;;;;;775732;75;26259;-72
2022/05/01 02:08:10;;;;;;;12.65;11.45;;;;;;;;;;777250;74;26260;-73
2022/05/01 02:09:12;;;;;;;13.40;12.10;;;;;;;;;;784952;74;26375;-71
2022/05/01 02:10:17;;;;;;;13.50;12.20;;;;;;;;;;787724;74;26748;-72
2022/05/01 02:11:22;;;;;;;14.00;12.60;;;;;;;;;;779058;74;26730;-70
2022/05/01 02:14:03;;;;;;;13.68;12.13;;;;;;;;;;765912;75;26331;-71
2022/05/01 02:15:08;;;;;;;13.20;11.97;;;;;;;;;;755026;77;26274;-74
2022/05/01 02:16:17;;;;;;;13.90;12.40;;;;;;;;;;750367;77;26317;-71
2022/05/01 02:17:24;;;;;;;13.72;12.43;;;;;;;;;;756360;77;26272;-71
2022/05/01 02:18:30;;;;;;;14.35;12.50;;;;;;;;;;748289;78;26395;-71
2022/05/01 02:19:36;;;;;;;14.85;12.53;;;;;;;;;;750028;78;26261;-71
2022/05/01 02:22:08;;;;;;;13.72;12.33;;;;;;;;;;740009;78;26320;-72
2022/05/01 02:23:33;;;;;;;14.83;12.82;;;;;;;;;;741829;77;26270;-70
2022/05/01 02:36:06;;;;;;;12.82;11.53;;;;;;;;;;739350;79;26252;-70
2022/05/01 02:37:29;;;;;;;12.88;11.57;;;;;;;;;;738152;78;26786;-71
2022/05/01 02:38:39;;;;;;;13.68;12.37;;;;;;;;;;746897;77;26281;-71
2022/05/01 02:39:48;;;;;;;15.20;10.93;;;;;;;;;;747377;78;26805;-70
2022/05/01 02:40:53;;;;;;;14.35;12.63;;;;;;;;;;743883;77;26324;-71
2022/05/01 02:42:02;;;;;;;14.05;12.55;;;;;;;;;;743345;78;26381;-71
2022/05/01 02:43:12;;;;;;;17.12;13.88;;;;;;;;;;743875;78;26267;-72
2022/05/01 02:44:27;;;;;;;14.43;12.93;;;;;;;;;;723667;79;26381;-72
2022/05/01 02:48:45;;;;;;;13.50;11.45;;;;;;;;;;733197;76;26419;-71
2022/05/01 02:49:56;;;;;;;14.05;12.23;;;;;;;;;;722062;80;26304;-71
2022/05/01 02:51:04;;;;;;;15.70;12.80;;;;;;;;;;734781;79;26345;-70
2022/05/01 02:52:08;;;;;;;13.70;12.30;;;;;;;;;;746516;78;26281;-70
2022/05/01 02:53:19;;;;;;;14.20;12.70;;;;;;;;;;726172;79;26372;-70
2022/05/01 02:54:23;;;;;;;13.90;12.60;;;;;;;;;;720736;80;26346;-70
2022/05/01 02:55:32;;;;;;;12.93;11.68;;;;;;;;;;711022;82;26398;-71
2022/05/01 02:56:42;;;;;;;14.35;12.88;;;;;;;;;;713350;82;26612;-72
2022/05/01 02:57:48;;;;;;;14.73;13.10;;;;;;;;;;709747;82;26385;-70
2022/05/01 02:59:09;;;;;;;15.23;13.62;;;;;;;;;;730985;79;26385;-71
2022/05/01 03:00:18;;;;;;;15.08;13.58;;;;;;;;;;725241;80;26325;-72
2022/05/01 03:01:23;;;;;;;13.88;12.58;;;;;;;;;;735267;80;26375;-71
2022/05/01 03:02:48;;;;;;;15.32;13.72;;;;;;;;;;722297;80;26294;-72
2022/05/01 03:11:34;;;;;;;15.58;13.40;;;;;;;;;;781650;74;26611;-71
2022/05/01 03:12:42;;;;;;;15.50;13.90;;;;;;;;;;777154;75;26756;-72
2022/05/01 03:14:09;;;;;;;15.72;14.00;;;;;;;;;;779997;74;26663;-70
2022/05/01 03:15:15;;;;;;;15.32;13.72;;;;;;;;;;776515;74;26387;-70
2022/05/01 03:16:22;;;;;;;17.60;13.18;;;;;;;;;;784731;75;26209;-71
2022/05/01 03:22:10;;;;;;;15.20;13.38;;;;;;;;;;787007;74;26212;-71
2022/05/01 03:27:38;;;;;;;12.78;11.55;;;;;;;;;;794842;73;26181;-71
2022/05/01 03:28:48;;;;;;;13.13;11.78;;;;;;;;;;800711;73;26346;-72
2022/05/01 03:30:19;;;;;;;12.53;11.22;;;;;;;;;;791161;74;26302;-72
2022/05/01 03:31:32;;;;;;;12.10;10.48;;;;;;;;;;797994;73;26223;-73
2022/05/01 03:32:36;;;;;;;12.88;11.40;;;;;;;;;;800963;73;26819;-73
2022/05/01 03:33:42;;;;;;;14.53;11.65;;;;;;;;;;793544;73;26347;-73
2022/05/01 03:34:53;;;;;;;13.90;10.82;;;;;;;;;;788116;73;26246;-71
2022/05/01 03:35:57;;;;;;;12.37;11.08;;;;;;;;;;792427;73;26358;-71
2022/05/01 03:37:03;;;;;;;13.10;11.80;;;;;;;;;;797100;73;28134;-72
2022/05/01 03:38:08;;;;;;;13.22;11.75;;;;;;;;;;798920;73;26285;-70
2022/05/01 03:39:18;;;;;;;13.15;11.75;;;;;;;;;;798109;73;26404;-71
2022/05/01 03:40:26;;;;;;;12.60;11.40;;;;;;;;;;784612;74;26234;-72
2022/05/01 03:41:34;;;;;;;14.98;12.05;;;;;;;;;;790193;73;26639;-71
2022/05/01 03:43:02;;;;;;;12.85;11.55;;;;;;;;;;793771;73;26215;-70
2022/05/01 03:44:10;;;;;;;14.70;12.45;;;;;;;;;;785984;74;26216;-71
2022/05/01 03:45:14;;;;;;;13.30;12.00;;;;;;;;;;798982;73;26212;-72
2022/05/01 03:46:24;;;;;;;13.30;12.00;;;;;;;;;;801730;73;26700;-72
2022/05/01 03:47:37;;;;;;;13.25;11.85;;;;;;;;;;793862;73;26294;-71
2022/05/01 03:48:47;;;;;;;13.80;11.40;;;;;;;;;;797222;73;26211;-72
2022/05/01 03:49:57;;;;;;;12.35;11.05;;;;;;;;;;794859;73;26270;-71
2022/05/01 03:52:53;;;;;;;12.85;11.55;;;;;;;;;;755944;77;26289;-71
2022/05/01 03:53:58;;;;;;;13.53;12.18;;;;;;;;;;777312;74;26231;-71
2022/05/01 03:55:09;;;;;;;12.63;11.35;;;;;;;;;;788758;74;26283;-71
2022/05/01 03:56:17;;;;;;;12.23;11.03;;;;;;;;;;783009;74;26240;-70
2022/05/01 03:57:27;;;;;;;12.28;10.53;;;;;;;;;;788070;74;26225;-70
2022/05/01 04:04:36;;;;;;;11.73;10.58;;;;;;;;;;780209;75;26214;-71
2022/05/01 04:05:41;;;;;;;12.45;10.78;;;;;;;;;;774933;75;26258;-71
2022/05/01 04:14:01;;;;;;;10.50;9.40;;;;;;;;;;775611;74;26250;-71
2022/05/01 04:15:25;;;;;;;11.40;10.30;;;;;;;;;;773863;75;26378;-71
2022/05/01 04:16:31;;;;;;;11.38;10.28;;;;;;;;;;770477;75;26307;-72
2022/05/01 04:17:56;;;;;;;11.73;10.63;;;;;;;;;;777078;75;26372;-72
2022/05/01 04:19:01;;;;;;;11.40;10.20;;;;;;;;;;785912;74;26796;-71
2022/05/01 04:20:13;;;;;;;11.55;10.35;;;;;;;;;;776416;74;26716;-72
2022/05/01 04:21:19;;;;;;;11.53;10.43;;;;;;;;;;781611;74;26336;-71
2022/05/01 04:22:27;;;;;;;11.10;10.00;;;;;;;;;;785161;74;26308;-72
2022/05/01 04:23:36;;;;;;;10.88;9.75;;;;;;;;;;775960;75;26393;-71
2022/05/01 04:26:00;;;;;;;11.48;10.38;;;;;;;;;;786589;74;27289;-70
2022/05/01 04:27:06;;;;;;;11.15;10.25;;;;;;;;;;788213;74;26273;-70
2022/05/01 04:28:15;;;;;;;11.95;10.85;;;;;;;;;;764555;76;26319;-70
2022/05/01 04:29:44;;;;;;;11.45;10.30;;;;;;;;;;785392;74;26227;-72
2022/05/01 04:30:45;;;;;;;11.90;10.70;;;;;;;;;;785598;74;26258;-72
2022/05/01 04:31:50;;;;;;;12.53;11.22;;;;;;;;;;765149;76;26265;-70
2022/05/01 04:33:07;;;;;;;11.28;10.28;;;;;;;;;;776089;74;26228;-72
2022/05/01 04:34:15;;;;;;;11.40;10.30;;;;;;;;;;787763;74;26253;-72
2022/05/01 04:35:31;;;;;;;11.85;10.63;;;;;;;;;;767231;76;26770;-72
2022/05/01 04:36:40;;;;;;;13.18;11.10;;;;;;;;;;787976;74;26255;-72
2022/05/01 04:37:55;;;;;;;11.93;10.82;;;;;;;;;;789531;74;26307;-71
2022/05/01 04:39:04;;;;;;;12.98;11.57;;;;;;;;;;773596;76;26747;-70
2022/05/01 04:40:17;;;;;;;12.78;11.40;;;;;;;;;;766429;76;26260;-71
2022/05/01 04:41:41;;;;;;;12.07;10.78;;;;;;;;;;766593;75;26661;-72
2022/05/01 04:42:51;;;;;;;12.40;11.20;;;;;;;;;;788723;74;26253;-71
2022/05/01 04:44:00;;;;;;;12.88;11.60;;;;;;;;;;776853;74;26756;-71
2022/05/01 04:45:12;;;;;;;11.93;10.82;;;;;;;;;;754127;77;26386;-72
2022/05/01 04:46:20;;;;;;;12.63;11.33;;;;;;;;;;759257;77;26379;-71
2022/05/01 04:47:32;;;;;;;11.85;10.75;;;;;;;;;;785826;74;26326;-71
2022/05/01 04:48:54;;;;;;;12.10;11.00;;;;;;;;;;771089;75;26606;-71
2022/05/01 04:50:03;;;;;;;11.68;10.68;;;;;;;;;;783155;74;26239;-72
2022/05/01 04:51:18;;;;;;;11.80;10.60;;;;;;;;;;780907;74;26239;-71
2022/05/01 05:01:17;;;;;;;11.28;10.28;;;;;;;;;;799084;73;26650;-70
2022/05/01 05:02:29;;;;;;;11.48;10.48;;;;;;;;;;793491;73;26712;-71
2022/05/01 05:03:41;;;;;;;11.03;10.03;;;;;;;;;;783229;73;26634;-72
2022/05/01 05:04:48;;;;;;;11.20;10.20;;;;;;;;;;794457;73;26331;-72
2022/05/01 05:05:59;;;;;;;11.50;10.43;;;;;;;;;;791975;73;26264;-71
2022/05/01 05:07:02;;;;;;;11.55;10.40;;;;;;;;;;802231;73;26359;-69
2022/05/01 05:09:56;;;;;;;11.05;10.00;;;;;;;;;;794268;73;26303;-70
2022/05/01 05:11:20;;;;;;;11.80;10.60;;;;;;;;;;794053;73;26338;-70
2022/05/01 05:12:27;;;;;;;20.02;17.90;;;;;;;;;;795336;73;26287;-71
2022/05/01 05:13:37;;;;;;;14.23;12.93;;;;;;;;;;804824;73;26313;-70
2022/05/01 05:14:55;;;;;;;15.35;13.95;;;;;;;;;;795285;73;26345;-71
2022/05/01 05:15:59;;;;;;;12.95;11.65;;;;;;;;;;788311;74;26690;-71
2022/05/01 05:17:10;;;;;;;11.25;10.25;;;;;;;;;;786612;74;26286;-72
2022/05/01 05:18:13;;;;;;;11.33;10.32;;;;;;;;;;799620;73;26298;-72
2022/05/01 05:19:17;;;;;;;12.10;11.00;;;;;;;;;;796875;73;26240;-72
2022/05/01 05:20:20;;;;;;;12.58;11.48;;;;;;;;;;792727;73;26723;-74
2022/05/01 05:21:25;;;;;;;12.35;11.10;;;;;;;;;;787559;74;26324;-70
2022/05/01 05:22:31;;;;;;;13.20;12.00;;;;;;;;;;797559;73;27935;-73
2022/05/01 05:26:40;;;;;;;15.28;13.80;;;;;;;;;;795737;73;26210;-72
2022/05/01 05:27:45;;;;;;;15.08;13.50;;;;;;;;;;778828;74;26306;-70
2022/05/01 05:28:50;;;;;;;13.90;12.60;;;;;;;;;;781748;75;26346;-72
2022/05/01 05:29:54;;;;;;;16.15;14.38;;;;;;;;;;794984;73;26240;-71
2022/05/01 05:30:58;;;;;;;16.12;14.50;;;;;;;;;;807664;73;26309;-72
2022/05/01 05:32:13;;;;;;;16.62;13.40;;;;;;;;;;793996;73;26325;-72
2022/05/01 05:33:16;;;;;;;14.98;13.48;;;;;;;;;;796444;73;26697;-71
2022/05/01 05:34:20;;;;;;;29.23;14.75;;;;;;;;;;795649;73;26281;-72
2022/05/01 05:35:25;;;;;;;26.23;14.90;;;;;;;;;;788253;74;27087;-73
2022/05/01 05:36:35;;;;;;;14.55;13.05;;;;;;;;;;798984;73;26193;-71
2022/05/01 05:37:42;;;;;;;15.28;13.78;;;;;;;;;;805450;73;26230;-74
2022/05/01 05:38:52;;;;;;;15.23;13.65;;;;;;;;;;796715;73;26259;-74
2022/05/01 05:39:57;;;;;;;13.10;11.85;;;;;;;;;;807489;72;26276;-78
2022/05/01 05:49:05;;;;;;;14.45;13.13;;;;;;;;;;774292;75;26206;-72
2022/05/01 05:50:08;;;;;;;14.45;12.70;;;;;;;;;;773901;74;26659;-74
2022/05/01 05:51:14;;;;;;;13.35;12.13;;;;;;;;;;764224;76;26270;-74
2022/05/01 05:52:20;;;;;;;14.85;13.35;;;;;;;;;;776018;76;26258;-74
2022/05/01 05:53:24;;;;;;;14.60;12.80;;;;;;;;;;768756;76;26265;-76
2022/05/01 05:54:27;;;;;;;15.20;13.70;;;;;;;;;;771511;75;26290;-73
2022/05/01 05:55:33;;;;;;;14.90;13.50;;;;;;;;;;779986;74;26217;-74
2022/05/01 05:56:39;;;;;;;15.55;14.05;;;;;;;;;;788844;74;26292;-71
2022/05/01 05:57:43;;;;;;;15.28;13.78;;;;;;;;;;787706;73;26342;-71
2022/05/01 05:58:46;;;;;;;15.13;13.62;;;;;;;;;;783549;73;26798;-73
2022/05/01 05:59:49;;;;;;;14.23;12.93;;;;;;;;;;774710;74;26682;-71
2022/05/01 06:00:55;;;;;;;14.25;12.95;;;;;;;;;;770140;76;26703;-72
2022/05/01 06:05:08;;;;;;;15.13;13.65;;;;;;;;;;787815;74;26205;-74
2022/05/01 06:06:15;;;;;;;16.37;14.70;;;;;;;;;;782914;74;26249;-73
2022/05/01 06:07:17;;;;;;;16.35;13.40;;;;;;;;;;779541;74;26265;-73
2022/05/01 06:08:21;;;;;;;15.95;14.35;;;;;;;;;;784577;74;26271;-72
2022/05/01 06:09:27;;;;;;;15.05;13.55;;;;;;;;;;781928;75;26257;-72
2022/05/01 06:10:31;;;;;;;14.95;13.48;;;;;;;;;;789571;73;26266;-72
2022/05/01 06:11:35;;;;;;;15.53;13.72;;;;;;;;;;788939;75;26252;-75
2022/05/01 06:12:41;;;;;;;16.42;14.75;;;;;;;;;;789248;73;26255;-72
2022/05/01 06:13:47;;;;;;;13.98;12.68;;;;;;;;;;786170;75;26402;-71
2022/05/01 06:14:51;;;;;;;15.13;13.53;;;;;;;;;;790386;74;26733;-72
2022/05/01 06:15:54;;;;;;;14.38;12.98;;;;;;;;;;784476;74;26262;-72
2022/05/01 06:16:58;;;;;;;14.23;12.88;;;;;;;;;;783422;75;26786;-71
2022/05/01 06:18:01;;;;;;;15.93;14.25;;;;;;;;;;784028;75;26270;-74
2022/05/01 06:19:05;;;;;;;14.95;13.45;;;;;;;;;;784744;75;26259;-70
2022/05/01 06:20:09;;;;;;;13.90;12.50;;;;;;;;;;784703;73;26311;-72
2022/05/01 06:21:17;;;;;;;14.93;13.30;;;;;;;;;;785285;73;26690;-71
2022/05/01 06:25:24;;;;;;;14.30;12.90;;;;;;;;;;802255;72;26157;-72
2022/05/01 06:26:27;;;;;;;13.50;12.20;;;;;;;;;;791259;74;26346;-71
2022/05/01 06:27:31;;;;;;;13.78;12.37;;;;;;;;;;794079;73;26236;-72
2022/05/01 06:31:19;;;;;;;12.63;11.33;;;;;;;;;;801315;72;26624;-74
2022/05/01 06:32:24;;;;;;;12.70;11.50;;;;;;;;;;798279;71;26665;-74
2022/05/01 06:33:34;;;;;;;13.60;12.30;;;;;;;;;;778212;74;26312;-75
2022/05/01 06:34:39;;;;;;;13.72;12.37;;;;;;;;;;789386;73;26242;-74
2022/05/01 06:35:43;;;;;;;13.03;11.78;;;;;;;;;;789408;73;26363;-75
2022/05/01 06:36:46;;;;;;;12.20;11.08;;;;;;;;;;787184;73;26730;-71
2022/05/01 06:37:50;;;;;;;12.78;11.57;;;;;;;;;;783913;73;26258;-71
2022/05/01 06:38:55;;;;;;;12.82;11.48;;;;;;;;;;774452;74;26227;-73
2022/05/01 06:40:00;;;;;;;13.80;12.37;;;;;;;;;;788274;73;26243;-71
2022/05/01 06:42:48;;;;;;;14.35;12.95;;;;;;;;;;783805;74;26384;-70
2022/05/01 06:43:58;;;;;;;13.10;11.85;;;;;;;;;;767497;75;26248;-72
2022/05/01 06:45:23;;;;;;;12.53;11.20;;;;;;;;;;776759;74;26322;-72
2022/05/01 06:52:57;;;;;;;12.25;11.15;;;;;;;;;;739256;79;26354;-73
2022/05/01 06:54:02;;;;;;;12.35;11.15;;;;;;;;;;742136;78;26818;-72
2022/05/01 06:55:13;;;;;;;12.78;11.57;;;;;;;;;;736792;79;26342;-72
2022/05/01 06:56:27;;;;;;;12.90;11.70;;;;;;;;;;719986;79;26520;-72
2022/05/01 06:57:27;;;;;;;13.62;12.28;;;;;;;;;;735384;79;26294;-71
2022/05/01 06:58:31;;;;;;;11.97;10.82;;;;;;;;;;733011;79;26301;-70
2022/05/01 06:59:42;;;;;;;12.15;10.95;;;;;;;;;;735117;79;26285;-72
2022/05/01 07:00:47;;;;;;;12.33;11.28;;;;;;;;;;729160;80;26275;-71
2022/05/01 07:02:00;;;;;;;12.23;10.98;;;;;;;;;;725345;80;26387;-70
2022/05/01 07:03:06;;;;;;;12.13;10.93;;;;;;;;;;728671;80;26374;-70
2022/05/01 07:04:10;;;;;;;12.20;11.10;;;;;;;;;;726886;79;27596;-71
2022/05/01 07:05:15;;;;;;;13.68;11.18;;;;;;;;;;721563;79;28662;-72
2022/05/01 07:06:19;;;;;;;11.68;10.55;;;;;;;;;;724968;79;26398;-70
2022/05/01 07:10:51;;;;;;;12.10;10.90;;;;;;;;;;768165;75;26329;-71
2022/05/01 07:11:59;;;;;;;11.53;10.40;;;;;;;;;;772423;75;26266;-71
2022/05/01 07:13:06;;;;;;;18.12;11.80;;;;;;;;;;774512;74;26872;-71
2022/05/01 07:14:13;;;;;;;12.10;10.90;;;;;;;;;;769168;76;26320;-71
2022/05/01 07:24:48;;;;;;;10.40;9.40;;;;;;;;;;738017;78;26638;-70
2022/05/01 07:25:51;;;;;;;10.50;9.55;;;;;;;;;;741017;78;26405;-71
2022/05/01 07:26:57;;;;;;;13.40;11.55;;;;;;;;;;735735;79;26269;-73
2022/05/01 07:28:06;;;;;;;12.37;11.18;;;;;;;;;;736649;79;26465;-72
2022/05/01 07:29:13;;;;;;;11.20;10.10;;;;;;;;;;738442;78;26673;-71
2022/05/01 07:30:17;;;;;;;10.88;9.88;;;;;;;;;;735686;78;26736;-71
2022/05/01 07:34:17;;;;;;;12.07;10.78;;;;;;;;;;757482;76;26288;-73
2022/05/01 07:35:22;;;;;;;11.60;10.45;;;;;;;;;;745644;78;26389;-72
2022/05/01 07:36:27;;;;;;;11.63;10.30;;;;;;;;;;757895;77;26316;-72
2022/05/01 07:37:36;;;;;;;11.48;10.43;;;;;;;;;;768945;75;26413;-72
2022/05/01 07:38:45;;;;;;;11.57;10.13;;;;;;;;;;776214;75;26346;-71
2022/05/01 07:50:55;;;;;;;10.88;9.88;;;;;;;;;;766140;73;26245;-73
2022/05/01 07:51:58;;;;;;;10.75;9.18;;;;;;;;;;766025;76;26285;-73
2022/05/01 07:53:03;;;;;;;9.33;8.53;;;;;;;;;;765370;76;26365;-75
2022/05/01 07:58:46;;;;;;;11.25;10.25;;;;;;;;;;776156;75;26261;-75
2022/05/01 07:59:53;;;;;;;10.40;9.40;;;;;;;;;;775831;75;26263;-74
2022/05/01 08:08:33;;;;;;;9.18;8.38;;;;;;;;;;796440;73;26203;-73
2022/05/01 08:09:40;;;;;;;8.40;7.70;;;;;;;;;;780645;74;26680;-72
2022/05/01 08:10:51;;;;;;;9.05;8.15;;;;;;;;;;793412;73;26673;-71
2022/05/01 08:11:56;;;;;;;9.23;8.40;;;;;;;;;;781356;74;26240;-73
2022/05/01 08:16:13;;;;;;;9.65;8.85;;;;;;;;;;761784;75;26218;-72
2022/05/01 08:17:21;;;;;;;9.48;8.53;;;;;;;;;;777385;75;26305;-73
2022/05/01 08:21:12;;;;;;;8.48;7.72;;;;;;;;;;786220;73;26301;-71
2022/05/01 08:22:16;;;;;;;8.90;8.10;;;;;;;;;;770516;75;26249;-72
2022/05/01 08:23:20;;;;;;;8.40;7.70;;;;;;;;;;778045;75;26306;-73
2022/05/01 08:24:24;;;;;;;9.30;8.40;;;;;;;;;;780348;75;26380;-71
2022/05/01 08:25:27;;;;;;;8.53;7.85;;;;;;;;;;773834;75;26292;-71
2022/05/01 08:26:34;;;;;;;8.10;7.50;;;;;;;;;;778740;75;26730;-72
2022/05/01 08:27:39;;;;;;;8.30;7.60;;;;;;;;;;780748;75;26246;-73
2022/05/01 08:29:52;;;;;;;9.10;8.20;;;;;;;;;;775556;75;26371;-72
2022/05/01 08:30:56;;;;;;;8.40;7.72;;;;;;;;;;774695;74;26250;-72
2022/05/01 08:32:00;;;;;;;9.08;8.33;;;;;;;;;;773980;75;26247;-71
2022/05/01 08:33:05;;;;;;;7.92;7.33;;;;;;;;;;773391;75;26380;-72
2022/05/01 08:34:10;;;;;;;8.35;7.65;;;;;;;;;;774478;74;26239;-72
2022/05/01 08:35:15;;;;;;;8.20;7.50;;;;;;;;;;777494;75;26378;-72
2022/05/01 08:36:25;;;;;;;7.90;7.30;;;;;;;;;;774274;75;26318;-75
2022/05/01 08:37:30;;;;;;;7.80;7.10;;;;;;;;;;776217;75;26430;-75
2022/05/01 08:38:35;;;;;;;7.55;6.85;;;;;;;;;;774835;75;26676;-75
2022/05/01 08:39:39;;;;;;;6.97;6.35;;;;;;;;;;777163;75;26375;-75
2022/05/01 08:40:45;;;;;;;8.10;7.40;;;;;;;;;;777363;74;26243;-73
2022/05/01 08:41:50;;;;;;;7.30;6.72;;;;;;;;;;775104;75;26758;-73
2022/05/01 08:42:59;;;;;;;7.42;6.90;;;;;;;;;;780808;75;26261;-73
2022/05/01 08:44:05;;;;;;;8.68;7.87;;;;;;;;;;775961;75;26261;-74
2022/05/01 08:45:09;;;;;;;7.67;7.08;;;;;;;;;;777709;75;26266;-73
2022/05/01 08:46:25;;;;;;;7.53;6.92;;;;;;;;;;772985;76;26438;-73
2022/05/01 08:47:36;;;;;;;8.30;7.50;;;;;;;;;;772664;75;26675;-73
2022/05/01 08:48:41;;;;;;;8.25;7.60;;;;;;;;;;775390;75;26773;-72
2022/05/01 09:06:01;;;;;;;6.65;6.05;;;;;;;;;;765294;75;26371;-73
2022/05/01 09:07:12;;;;;;;6.95;6.37;;;;;;;;;;766628;75;26258;-73
2022/05/01 09:08:18;;;;;;;7.03;6.53;;;;;;;;;;776950;75;26338;-71
2022/05/01 09:09:30;;;;;;;6.78;6.30;;;;;;;;;;776211;75;26240;-72
2022/05/01 09:31:55;;;;;;;5.87;5.47;;;;;;;;;;785543;73;26684;-69
2022/05/01 09:52:11;;;;;;;4.53;4.17;;;;;;;;;;781336;74;26200;-72
2022/05/01 09:53:20;;;;;;;6.23;4.47;;;;;;;;;;775307;75;26690;-72
2022/05/01 09:54:36;;;;;;;4.85;4.55;;;;;;;;;;776844;74;26704;-71
2022/05/01 09:55:40;;;;;;;5.10;4.70;;;;;;;;;;778896;75;26240;-72
2022/05/01 09:56:58;;;;;;;4.45;4.15;;;;;;;;;;779943;74;26263;-71
2022/05/01 09:58:10;;;;;;;4.70;4.40;;;;;;;;;;779280;74;26700;-74
2022/05/01 09:59:16;;;;;;;4.50;4.20;;;;;;;;;;780917;75;26370;-72
2022/05/01 10:00:39;;;;;;;6.50;4.57;;;;;;;;;;781974;75;26378;-71
2022/05/01 10:02:04;;;;;;;5.23;4.83;;;;;;;;;;767794;76;27022;-72
2022/05/01 10:03:24;;;;;;;4.53;4.23;;;;;;;;;;772476;74;27256;-72
2022/05/01 10:04:30;;;;;;;4.57;4.27;;;;;;;;;;751242;77;26533;-72
2022/05/01 10:05:34;;;;;;;4.83;4.40;;;;;;;;;;769222;74;26750;-72
2022/05/01 10:06:37;;;;;;;4.47;4.17;;;;;;;;;;774422;75;26218;-70
2022/05/01 10:07:46;;;;;;;4.30;4.03;;;;;;;;;;767728;76;26957;-71
2022/05/01 10:08:51;;;;;;;4.27;3.97;;;;;;;;;;767946;76;26276;-72
2022/05/01 10:11:29;;;;;;;4.50;4.20;;;;;;;;;;761905;76;26748;-71
2022/05/01 10:12:33;;;;;;;4.43;4.10;;;;;;;;;;779009;75;26465;-71
2022/05/01 10:13:41;;;;;;;4.40;4.10;;;;;;;;;;781592;75;26722;-71
2022/05/01 10:14:49;;;;;;;3.83;3.63;;;;;;;;;;758444;76;26677;-70
2022/05/01 10:15:55;;;;;;;4.57;3.97;;;;;;;;;;775805;75;26424;-70
2022/05/01 10:16:58;;;;;;;4.37;4.07;;;;;;;;;;771818;75;26665;-69
2022/05/01 10:19:25;;;;;;;3.97;3.67;;;;;;;;;;784711;72;27161;-73
2022/05/01 10:20:33;;;;;;;4.30;4.00;;;;;;;;;;776143;75;26573;-72
2022/05/01 10:21:45;;;;;;;4.23;3.93;;;;;;;;;;786198;73;26480;-71
2022/05/01 10:22:57;;;;;;;4.10;3.90;;;;;;;;;;785230;73;26243;-71
2022/05/01 10:36:15;;;;;;;4.07;3.87;;;;;;;;;;758237;76;26571;-73
2022/05/01 10:37:42;;;;;;;3.93;3.63;;;;;;;;;;752065;77;26717;-74
2022/05/01 10:39:09;;;;;;;3.77;3.57;;;;;;;;;;753020;76;26421;-72
2022/05/01 10:40:37;;;;;;;3.93;3.53;;;;;;;;;;765411;76;26933;-73
2022/05/01 10:41:59;;;;;;;4.73;4.43;;;;;;;;;;765496;75;26593;-72
2022/05/01 10:43:25;;;;;;;3.77;3.47;;;;;;;;;;730200;77;26270;-72
2022/05/01 10:44:47;;;;;;;4.10;3.80;;;;;;;;;;772101;75;26908;-73
2022/05/01 10:45:53;;;;;;;4.00;3.70;;;;;;;;;;772750;76;26318;-73
2022/05/01 10:47:25;;;;;;;4.67;3.90;;;;;;;;;;758707;76;26494;-73
2022/05/01 10:48:41;;;;;;;4.10;3.80;;;;;;;;;;766956;75;26602;-73
2022/05/01 10:50:09;;;;;;;4.83;4.37;;;;;;;;;;769323;75;26573;-72
2022/05/01 10:51:36;;;;;;;7.13;4.30;;;;;;;;;;765345;75;26363;-73
2022/05/01 10:52:44;;;;;;;5.00;4.60;;;;;;;;;;751738;76;26662;-73
2022/05/01 10:54:07;;;;;;;7.53;6.07;;;;;;;;;;753987;75;26621;-73
2022/05/01 10:55:12;;;;;;;4.93;4.60;;;;;;;;;;758902;75;26964;-74
2022/05/01 10:56:26;;;;;;;4.70;4.40;;;;;;;;;;763415;76;26492;-73
2022/05/01 10:57:32;;;;;;;4.83;4.43;;;;;;;;;;769536;75;26488;-73
2022/05/01 10:58:44;;;;;;;4.83;4.43;;;;;;;;;;766598;76;26478;-73
2022/05/01 11:03:07;;;;;;;5.60;5.05;;;;;;;;;;777387;74;26473;-73
2022/05/01 11:04:12;;;;;;;5.57;5.07;;;;;;;;;;767203;75;26647;-73
2022/05/01 11:05:40;;;;;;;5.30;4.90;;;;;;;;;;775007;75;26473;-72
2022/05/01 11:06:50;;;;;;;8.57;7.77;;;;;;;;;;780271;75;26461;-74
2022/05/01 11:07:54;;;;;;;6.50;6.00;;;;;;;;;;774354;76;26565;-73
2022/05/01 11:09:01;;;;;;;5.13;4.73;;;;;;;;;;779017;75;26950;-74
2022/05/01 11:10:10;;;;;;;4.53;4.23;;;;;;;;;;774179;75;26524;-75
2022/05/01 11:11:13;;;;;;;5.40;4.40;;;;;;;;;;792832;74;26598;-74
2022/05/01 11:12:19;;;;;;;7.37;6.67;;;;;;;;;;777531;76;26742;-73